createdAt,value
2022-12-08T00:01:20.245Z,92.69
2022-12-08T00:03:47.690Z,92.19
2022-12-08T00:06:49.647Z,91.93
2022-12-08T00:09:23.264Z,92.04
2022-12-08T00:11:52.304Z,92.21
2022-12-08T00:14:18.911Z,91.88
2022-12-08T00:16:45.417Z,91.77
2022-12-08T00:19:12.272Z,90.73
2022-12-08T00:21:38.630Z,91.73
2022-12-08T00:24:05.097Z,92.05
2022-12-08T00:26:31.860Z,91.71
2022-12-08T00:28:58.178Z,92.14
2022-12-08T00:31:24.591Z,92.10
2022-12-08T00:33:51.413Z,92.31
2022-12-08T00:36:17.769Z,91.88
2022-12-08T00:38:45.003Z,91.84
2022-12-08T00:41:17.472Z,92.53
2022-12-08T00:43:44.302Z,92.74
2022-12-08T00:46:11.851Z,93.37
2022-12-08T00:48:38.823Z,93.45
2022-12-08T00:51:05.265Z,93.96
2022-12-08T00:53:32.190Z,93.97
2022-12-08T00:55:58.987Z,94.00
2022-12-08T00:58:25.338Z,94.05
2022-12-08T01:00:51.831Z,93.64
2022-12-08T01:03:18.635Z,93.72
2022-12-08T01:05:45.011Z,93.27
2022-12-08T01:08:11.373Z,93.16
2022-12-08T01:10:38.676Z,92.94
2022-12-08T01:13:05.377Z,93.77
2022-12-08T01:15:31.721Z,93.51
2022-12-08T01:17:58.470Z,93.08
2022-12-08T01:20:25.364Z,93.15
2022-12-08T01:22:51.668Z,93.25
2022-12-08T01:25:18.120Z,93.34
2022-12-08T01:27:44.759Z,93.40
2022-12-08T01:30:12.096Z,92.89
2022-12-08T01:32:38.433Z,93.09
2022-12-08T01:35:05.406Z,92.88
2022-12-08T01:37:31.723Z,92.99
2022-12-08T01:39:58.056Z,92.94
2022-12-08T01:42:25.412Z,93.10
2022-12-08T01:44:57.223Z,92.92
2022-12-08T01:47:30.486Z,92.95
2022-12-08T01:49:56.999Z,93.40
2022-12-08T01:52:33.682Z,93.71
2022-12-08T01:55:08.548Z,93.55
2022-12-08T01:57:44.146Z,93.34
2022-12-08T02:00:14.659Z,92.55
2022-12-08T02:02:59.052Z,93.98
2022-12-08T02:05:31.545Z,94.27
2022-12-08T02:08:02.101Z,93.52
2022-12-08T02:10:30.867Z,93.96
2022-12-08T02:12:59.090Z,94.37
2022-12-08T02:15:51.926Z,93.98
2022-12-08T02:19:22.063Z,94.43
2022-12-08T02:21:45.732Z,94.39
2022-12-08T02:24:23.257Z,95.02
2022-12-08T02:27:21.098Z,94.00
2022-12-08T02:30:08.765Z,94.54
2022-12-08T02:33:12.501Z,94.79
2022-12-08T02:35:51.649Z,94.86
2022-12-08T02:38:31.538Z,94.90
2022-12-08T02:41:22.189Z,94.62
2022-12-08T02:44:08.497Z,94.81
2022-12-08T02:46:48.560Z,94.78
2022-12-08T02:49:16.591Z,94.92
2022-12-08T02:51:42.901Z,95.97
2022-12-08T02:54:10.060Z,95.97
2022-12-08T02:56:54.946Z,96.13
2022-12-08T02:59:47.715Z,95.60
2022-12-08T03:02:33.214Z,95.64
2022-12-08T03:05:06.478Z,94.74
2022-12-08T03:07:44.986Z,95.57
2022-12-08T03:10:35.854Z,94.60
2022-12-08T03:13:14.692Z,95.41
2022-12-08T03:15:43.167Z,95.13
2022-12-08T03:18:15.846Z,95.15
2022-12-08T03:20:45.102Z,94.85
2022-12-08T03:23:14.857Z,94.99
2022-12-08T03:25:48.359Z,94.75
2022-12-08T03:28:15.802Z,94.18
2022-12-08T03:30:47.629Z,94.55
2022-12-08T03:33:25.746Z,95.81
2022-12-08T03:35:53.417Z,95.24
2022-12-08T03:38:19.836Z,95.35
2022-12-08T03:41:04.818Z,95.34
2022-12-08T03:43:31.194Z,95.25
2022-12-08T03:45:58.102Z,95.35
2022-12-08T03:48:24.460Z,94.96
2022-12-08T03:50:50.827Z,94.28
2022-12-08T03:53:17.495Z,94.38
2022-12-08T03:55:43.828Z,94.05
2022-12-08T03:58:10.518Z,94.30
2022-12-08T04:00:36.831Z,94.33
2022-12-08T04:03:04.423Z,93.83
2022-12-08T04:05:31.116Z,94.43
2022-12-08T04:07:58.097Z,94.54
2022-12-08T04:10:24.538Z,94.91
2022-12-08T04:12:51.320Z,94.26
2022-12-08T04:15:17.631Z,94.97
2022-12-08T04:17:44.293Z,94.40
2022-12-08T04:20:11.259Z,94.66
2022-12-08T04:22:37.570Z,94.94
2022-12-08T04:25:04.744Z,94.71
2022-12-08T04:27:31.062Z,94.07
2022-12-08T04:29:57.787Z,95.21
2022-12-08T04:32:24.110Z,95.20
2022-12-08T04:34:50.491Z,94.85
2022-12-08T04:37:17.190Z,95.66
2022-12-08T04:39:44.957Z,96.06
2022-12-08T04:42:11.280Z,95.12
2022-12-08T04:44:37.954Z,95.17
2022-12-08T04:47:04.434Z,95.02
2022-12-08T04:49:30.799Z,95.09
2022-12-08T04:51:57.690Z,94.65
2022-12-08T04:54:24.039Z,94.65
2022-12-08T04:56:50.351Z,94.71
2022-12-08T04:59:17.190Z,93.84
2022-12-08T05:01:43.617Z,94.14
2022-12-08T05:04:10.064Z,94.30
2022-12-08T05:06:37.009Z,94.62
2022-12-08T05:09:03.385Z,94.25
2022-12-08T05:11:29.695Z,93.83
2022-12-08T05:13:56.380Z,93.44
2022-12-08T05:16:23.066Z,93.81
2022-12-08T05:18:49.459Z,94.67
2022-12-08T05:21:15.782Z,94.06
2022-12-08T05:23:42.419Z,94.73
2022-12-08T05:26:08.809Z,95.52
2022-12-08T05:28:43.653Z,94.21
2022-12-08T05:31:15.741Z,94.35
2022-12-08T05:33:43.398Z,94.31
2022-12-08T05:36:12.308Z,94.44
2022-12-08T05:38:39.638Z,94.14
2022-12-08T05:41:07.629Z,94.44
2022-12-08T05:43:34.239Z,94.28
2022-12-08T05:46:01.571Z,93.96
2022-12-08T05:48:27.976Z,94.24
2022-12-08T05:50:54.310Z,94.12
2022-12-08T05:53:21.276Z,94.04
2022-12-08T05:55:48.010Z,93.41
2022-12-08T05:58:16.945Z,94.08
2022-12-08T06:00:43.868Z,93.29
2022-12-08T06:03:14.754Z,93.42
2022-12-08T06:05:42.433Z,94.87
2022-12-08T06:08:09.223Z,94.67
2022-12-08T06:10:35.609Z,94.07
2022-12-08T06:13:02.291Z,93.59
2022-12-08T06:15:28.618Z,93.18
2022-12-08T06:17:55.663Z,93.64
2022-12-08T06:20:21.992Z,93.50
2022-12-08T06:22:48.319Z,93.37
2022-12-08T06:25:15.052Z,93.33
2022-12-08T06:27:41.655Z,92.77
2022-12-08T06:30:08.934Z,93.62
2022-12-08T06:32:36.814Z,93.77
2022-12-08T06:35:03.717Z,93.81
2022-12-08T06:37:30.042Z,94.06
2022-12-08T06:39:56.808Z,93.98
2022-12-08T06:42:42.401Z,93.62
2022-12-08T06:45:09.685Z,93.71
2022-12-08T06:47:36.141Z,93.70
2022-12-08T06:50:03.550Z,93.26
2022-12-08T06:52:30.161Z,93.17
2022-12-08T06:54:56.494Z,93.43
2022-12-08T06:57:24.561Z,93.19
2022-12-08T06:59:50.912Z,92.85
2022-12-08T07:02:17.529Z,93.66
2022-12-08T07:04:44.515Z,93.70
2022-12-08T07:07:10.870Z,93.37
2022-12-08T07:09:37.661Z,93.66
2022-12-08T07:12:04.601Z,93.26
2022-12-08T07:14:31.298Z,92.90
2022-12-08T07:16:57.700Z,93.13
2022-12-08T07:19:24.141Z,93.55
2022-12-08T07:21:50.803Z,92.83
2022-12-08T07:24:17.108Z,93.68
2022-12-08T07:26:43.541Z,93.57
2022-12-08T07:29:11.017Z,93.04
2022-12-08T07:31:37.335Z,93.04
2022-12-08T07:34:03.966Z,93.01
2022-12-08T07:36:30.822Z,92.71
2022-12-08T07:38:57.175Z,92.43
2022-12-08T07:41:25.692Z,92.16
2022-12-08T07:43:54.019Z,91.48
2022-12-08T07:46:22.787Z,92.15
2022-12-08T07:48:49.356Z,92.34
2022-12-08T07:51:17.315Z,92.87
2022-12-08T07:53:49.893Z,91.43
2022-12-08T07:56:20.828Z,91.56
2022-12-08T07:58:47.553Z,91.09
2022-12-08T08:01:23.331Z,90.98
2022-12-08T08:03:49.878Z,90.69
2022-12-08T08:06:16.578Z,90.44
2022-12-08T08:08:43.287Z,90.16
2022-12-08T08:11:18.948Z,90.85
2022-12-08T08:13:47.606Z,90.30
2022-12-08T08:16:14.775Z,89.48
2022-12-08T08:18:41.738Z,88.97
2022-12-08T08:21:43.020Z,86.68
2022-12-08T08:23:54.715Z,85.21
2022-12-08T08:26:21.533Z,84.82
2022-12-08T08:28:48.138Z,83.07
2022-12-08T08:31:14.872Z,82.27
2022-12-08T08:33:41.292Z,81.86
2022-12-08T08:36:09.239Z,81.59
2022-12-08T08:38:40.379Z,79.48
2022-12-08T08:41:10.913Z,79.42
2022-12-08T08:43:38.687Z,77.99
2022-12-08T08:46:06.250Z,80.76
2022-12-08T08:48:33.675Z,82.12
2022-12-08T08:51:08.769Z,83.80
2022-12-08T08:53:35.380Z,84.66
2022-12-08T08:56:03.056Z,85.62
2022-12-08T08:58:29.903Z,86.07
2022-12-08T09:00:56.399Z,86.80
2022-12-08T09:03:22.735Z,87.19
2022-12-08T09:05:50.881Z,87.35
2022-12-08T09:08:17.416Z,87.33
2022-12-08T09:10:43.855Z,88.18
2022-12-08T09:13:10.486Z,88.71
2022-12-08T09:15:37.060Z,88.46
2022-12-08T09:18:03.840Z,88.23
2022-12-08T09:20:30.159Z,88.25
2022-12-08T09:22:56.488Z,87.62
2022-12-08T09:25:23.446Z,87.22
2022-12-08T09:27:49.821Z,87.26
2022-12-08T09:30:16.353Z,86.86
2022-12-08T09:32:43.263Z,86.77
2022-12-08T09:35:09.645Z,87.69
2022-12-08T09:37:35.994Z,86.77
2022-12-08T09:40:03.202Z,85.16
2022-12-08T09:42:40.219Z,86.51
2022-12-08T09:45:12.685Z,87.47
2022-12-08T09:47:57.417Z,87.38
2022-12-08T09:50:33.086Z,87.37
2022-12-08T09:53:08.809Z,87.32
2022-12-08T09:55:46.857Z,87.30
2022-12-08T09:58:25.504Z,87.78
2022-12-08T10:00:52.617Z,87.04
2022-12-08T10:03:30.321Z,88.48
2022-12-08T10:06:27.069Z,88.87
2022-12-08T10:09:30.141Z,86.26
2022-12-08T10:12:00.648Z,86.11
2022-12-08T10:14:46.046Z,86.28
2022-12-08T10:17:18.524Z,86.04
2022-12-08T10:19:47.023Z,86.70
2022-12-08T10:22:26.818Z,83.76
2022-12-08T10:25:07.187Z,84.68
2022-12-08T10:27:37.451Z,83.09
2022-12-08T10:30:22.439Z,84.20
2022-12-08T10:32:50.988Z,83.85
2022-12-08T10:35:19.662Z,85.28
2022-12-08T10:38:01.312Z,83.57
2022-12-08T10:40:34.377Z,84.49
2022-12-08T10:43:01.950Z,83.29
2022-12-08T10:45:33.171Z,83.15
2022-12-08T10:48:20.161Z,83.21
2022-12-08T10:50:53.925Z,82.88
2022-12-08T10:53:34.185Z,83.93
2022-12-08T10:56:03.278Z,82.96
2022-12-08T10:58:44.100Z,83.28
2022-12-08T11:01:28.188Z,82.97
2022-12-08T11:03:58.839Z,82.88
2022-12-08T11:06:36.999Z,83.09
2022-12-08T11:09:22.567Z,82.88
2022-12-08T11:11:52.112Z,83.69
2022-12-08T11:14:24.529Z,82.51
2022-12-08T11:16:53.974Z,82.29
2022-12-08T11:19:25.875Z,81.79
2022-12-08T11:21:52.191Z,82.19
2022-12-08T11:24:30.221Z,81.89
2022-12-08T11:27:02.862Z,82.98
2022-12-08T11:29:32.126Z,81.10
2022-12-08T11:32:12.078Z,81.04
2022-12-08T11:34:55.909Z,80.16
2022-12-08T11:37:35.135Z,80.91
2022-12-08T11:40:15.913Z,81.34
2022-12-08T11:43:08.443Z,80.92
2022-12-08T11:45:36.929Z,80.63
2022-12-08T11:48:51.321Z,80.92
2022-12-08T11:51:40.112Z,81.76
2022-12-08T11:54:25.779Z,81.96
2022-12-08T11:57:01.114Z,80.51
2022-12-08T11:59:41.573Z,81.40
2022-12-08T12:02:16.614Z,78.87
2022-12-08T12:04:52.549Z,80.67
2022-12-08T12:07:38.089Z,80.61
2022-12-08T12:10:07.748Z,79.35
2022-12-08T12:12:59.809Z,79.66
2022-12-08T12:16:17.504Z,78.60
2022-12-08T12:18:47.915Z,77.96
2022-12-08T12:21:22.599Z,77.68
2022-12-08T12:23:56.772Z,78.68
2022-12-08T12:26:26.099Z,79.09
2022-12-08T12:28:58.304Z,78.23
2022-12-08T12:31:28.914Z,76.96
2022-12-08T12:34:06.406Z,84.02
2022-12-08T12:36:48.141Z,83.79
2022-12-08T12:39:18.063Z,81.93
2022-12-08T12:41:50.255Z,81.37
2022-12-08T12:44:19.374Z,80.47
2022-12-08T12:46:53.455Z,80.33
2022-12-08T12:49:37.961Z,81.27
2022-12-08T12:52:26.505Z,82.18
2022-12-08T12:54:52.843Z,82.32
2022-12-08T12:57:19.211Z,83.67
2022-12-08T12:59:54.695Z,83.89
2022-12-08T13:02:29.804Z,86.02
2022-12-08T13:05:08.560Z,88.34
2022-12-08T13:07:46.252Z,90.23
2022-12-08T13:10:15.994Z,90.22
2022-12-08T13:12:44.249Z,90.64
2022-12-08T13:15:20.999Z,89.91
2022-12-08T13:17:49.072Z,90.20
2022-12-08T13:20:47.507Z,88.82
2022-12-08T13:23:28.349Z,90.00
2022-12-08T13:26:27.057Z,89.87
2022-12-08T13:29:01.037Z,89.24
2022-12-08T13:31:50.961Z,91.16
2022-12-08T13:34:32.866Z,91.32
2022-12-08T13:37:11.846Z,90.64
2022-12-08T13:39:49.579Z,89.25
2022-12-08T13:42:39.856Z,90.16
2022-12-08T13:45:33.640Z,90.45
2022-12-08T13:57:13.964Z,88.51
2022-12-08T13:59:45.975Z,88.66
2022-12-08T14:02:32.640Z,88.78
2022-12-08T14:07:48.394Z,89.17
2022-12-08T14:10:35.846Z,90.21
2022-12-08T14:13:05.327Z,90.22
2022-12-08T14:15:38.646Z,90.47
2022-12-08T14:18:06.790Z,89.63
2022-12-08T14:20:51.797Z,89.55
2022-12-08T14:23:21.393Z,89.60
2022-12-08T14:25:48.460Z,89.27
2022-12-08T14:28:14.993Z,90.10
2022-12-08T14:30:42.587Z,90.87
2022-12-08T14:33:14.912Z,89.72
2022-12-08T14:35:41.637Z,90.03
2022-12-08T14:38:17.028Z,90.45
2022-12-08T14:41:04.850Z,89.94
2022-12-08T14:43:32.296Z,90.66
2022-12-08T14:46:05.041Z,90.12
2022-12-08T14:48:31.398Z,90.74
2022-12-08T14:50:59.748Z,90.24
2022-12-08T14:53:29.099Z,90.53
2022-12-08T14:55:55.487Z,90.69
2022-12-08T14:58:30.366Z,90.77
2022-12-08T15:00:58.924Z,89.66
2022-12-08T15:03:28.357Z,88.95
2022-12-08T15:06:03.443Z,89.40
2022-12-08T15:08:30.980Z,89.29
2022-12-08T15:11:22.493Z,89.06
2022-12-08T15:13:50.953Z,88.77
2022-12-08T15:16:28.052Z,88.42
2022-12-08T15:19:16.282Z,88.53
2022-12-08T15:21:44.813Z,89.24
2022-12-08T15:24:13.828Z,90.05
2022-12-08T15:26:49.180Z,89.18
2022-12-08T15:29:27.325Z,88.73
2022-12-08T15:31:57.242Z,89.26
2022-12-08T15:34:23.674Z,89.98
2022-12-08T15:36:51.749Z,88.50
2022-12-08T15:39:18.448Z,89.26
2022-12-08T15:41:44.770Z,89.10
2022-12-08T15:44:11.069Z,89.42
2022-12-08T15:46:37.812Z,88.50
2022-12-08T15:49:04.215Z,88.64
2022-12-08T15:51:36.193Z,89.36
2022-12-08T15:54:03.111Z,89.42
2022-12-08T15:56:29.486Z,89.62
2022-12-08T15:58:57.280Z,90.00
2022-12-08T16:01:24.956Z,90.15
2022-12-08T16:09:38.210Z,89.96
2022-12-08T16:13:06.952Z,89.69
2022-12-08T16:18:07.564Z,89.93
2022-12-08T16:23:41.521Z,89.63
2022-12-08T16:28:58.481Z,90.05
2022-12-08T16:31:24.984Z,89.98
2022-12-08T16:33:52.275Z,90.38
2022-12-08T16:36:19.047Z,90.78
2022-12-08T16:38:48.309Z,90.64
2022-12-08T16:41:35.648Z,89.79
2022-12-08T16:44:04.970Z,90.44
2022-12-08T16:46:33.061Z,90.14
2022-12-08T16:49:01.043Z,90.55
2022-12-08T16:51:27.828Z,90.42
2022-12-08T16:53:57.205Z,90.78
2022-12-08T16:56:32.710Z,90.72
2022-12-08T16:59:00.829Z,89.88
2022-12-08T17:01:28.378Z,90.70
2022-12-08T17:06:42.111Z,90.91
2022-12-08T17:09:08.710Z,91.27
2022-12-08T17:11:42.370Z,91.33
2022-12-08T17:14:09.942Z,91.56
2022-12-08T17:16:36.988Z,91.43
2022-12-08T17:19:03.606Z,90.77
2022-12-08T17:21:30.075Z,91.29
2022-12-08T17:23:56.785Z,91.13
2022-12-08T17:26:23.162Z,91.31
2022-12-08T17:29:00.597Z,91.35
2022-12-08T17:31:30.324Z,91.43
2022-12-08T17:34:05.040Z,91.69
2022-12-08T17:36:31.584Z,91.47
2022-12-08T17:38:59.776Z,91.44
2022-12-08T17:41:26.619Z,91.76
2022-12-08T17:43:53.007Z,91.84
2022-12-08T17:46:20.652Z,91.69
2022-12-08T17:48:47.696Z,91.48
2022-12-08T17:51:14.984Z,91.96
2022-12-08T17:53:41.327Z,91.34
2022-12-08T17:56:18.361Z,91.58
2022-12-08T17:58:47.548Z,91.99
2022-12-08T18:01:17.685Z,92.11
2022-12-08T18:03:45.170Z,91.60
2022-12-08T18:06:12.581Z,91.30
2022-12-08T18:08:39.634Z,91.73
2022-12-08T18:11:19.405Z,91.90
2022-12-08T18:13:47.089Z,92.19
2022-12-08T18:16:13.934Z,92.10
2022-12-08T18:18:40.544Z,91.93
2022-12-08T18:21:07.890Z,92.19
2022-12-08T18:23:36.554Z,93.30
2022-12-08T18:26:07.594Z,93.06
2022-12-08T18:28:35.419Z,92.74
2022-12-08T18:31:02.128Z,92.80
2022-12-08T18:33:28.618Z,92.59
2022-12-08T18:35:55.128Z,91.89
2022-12-08T18:38:21.498Z,92.06
2022-12-08T18:40:48.210Z,92.35
2022-12-08T18:43:14.985Z,92.77
2022-12-08T18:45:41.395Z,92.92
2022-12-08T18:48:08.067Z,92.99
2022-12-08T18:50:34.745Z,93.11
2022-12-08T18:53:01.059Z,92.95
2022-12-08T18:55:27.363Z,93.32
2022-12-08T18:57:54.257Z,93.47
2022-12-08T19:00:20.952Z,93.80
2022-12-08T19:02:47.347Z,93.78
2022-12-08T19:05:14.460Z,94.11
2022-12-08T19:07:42.360Z,93.53
2022-12-08T19:10:09.523Z,93.56
2022-12-08T19:12:36.381Z,93.43
2022-12-08T19:15:03.321Z,93.46
2022-12-08T19:17:29.922Z,93.22
2022-12-08T19:19:56.383Z,93.36
2022-12-08T19:22:23.114Z,93.20
2022-12-08T19:24:49.798Z,93.23
2022-12-08T19:27:16.180Z,93.11
2022-12-08T19:29:42.920Z,92.74
2022-12-08T19:32:09.342Z,92.97
2022-12-08T19:34:35.741Z,92.95
2022-12-08T19:37:02.491Z,92.65
2022-12-08T19:39:47.525Z,93.06
2022-12-08T19:42:38.958Z,92.90
2022-12-08T19:45:07.577Z,93.34
2022-12-08T19:47:34.097Z,93.36
2022-12-08T19:50:19.740Z,93.13
2022-12-08T19:52:46.159Z,93.33
2022-12-08T19:55:13.727Z,93.04
2022-12-08T19:57:40.595Z,93.03
2022-12-08T20:00:10.198Z,92.66
2022-12-08T20:02:37.683Z,93.02
2022-12-08T20:05:08.638Z,93.02
2022-12-08T20:07:35.175Z,93.87
2022-12-08T20:10:05.468Z,93.87
2022-12-08T20:12:31.936Z,93.91
2022-12-08T20:14:58.301Z,94.60
2022-12-08T20:17:25.052Z,94.89
2022-12-08T20:19:51.467Z,94.51
2022-12-08T20:22:17.827Z,94.89
2022-12-08T20:24:44.601Z,94.49
2022-12-08T20:27:11.015Z,94.04
2022-12-08T20:29:37.846Z,94.11
2022-12-08T20:32:04.341Z,94.30
2022-12-08T20:34:31.268Z,94.32
2022-12-08T20:36:57.978Z,94.55
2022-12-08T20:39:24.313Z,94.77
2022-12-08T20:41:52.036Z,94.18
2022-12-08T20:44:18.998Z,94.32
2022-12-08T20:46:49.411Z,94.48
2022-12-08T20:49:16.416Z,94.42
2022-12-08T20:51:44.381Z,94.14
2022-12-08T20:54:11.129Z,94.35
2022-12-08T20:56:43.413Z,94.43
2022-12-08T20:59:18.304Z,94.34
2022-12-08T21:01:44.840Z,93.98
2022-12-08T21:04:13.363Z,94.27
2022-12-08T21:06:39.977Z,94.37
2022-12-08T21:09:07.083Z,93.72
2022-12-08T21:11:33.774Z,94.40
2022-12-08T21:14:00.134Z,94.26
2022-12-08T21:16:27.022Z,94.08
2022-12-08T21:18:53.585Z,94.24
2022-12-08T21:21:20.094Z,94.13
2022-12-08T21:23:46.944Z,94.93
2022-12-08T21:26:16.341Z,94.30
2022-12-08T21:28:43.639Z,94.85
2022-12-08T21:31:12.510Z,94.29
2022-12-08T21:33:39.204Z,94.08
2022-12-08T21:36:09.080Z,93.98
2022-12-08T21:38:37.607Z,93.52
2022-12-08T21:41:16.583Z,93.75
2022-12-08T21:43:43.440Z,93.08
2022-12-08T21:46:17.328Z,93.14
2022-12-08T21:48:44.517Z,93.20
2022-12-08T21:51:11.006Z,94.17
2022-12-08T21:53:37.453Z,94.08
2022-12-08T21:56:09.185Z,93.92
2022-12-08T21:58:35.990Z,94.07
2022-12-08T22:01:10.887Z,93.96
2022-12-08T22:03:38.659Z,93.62
2022-12-08T22:06:07.471Z,93.72
2022-12-08T22:08:34.939Z,93.99
2022-12-08T22:11:02.888Z,93.81
2022-12-08T22:13:29.335Z,93.74
2022-12-08T22:16:00.246Z,93.71
2022-12-08T22:18:27.826Z,93.85
2022-12-08T22:20:54.978Z,94.03
2022-12-08T22:23:22.129Z,93.99
2022-12-08T22:25:58.910Z,94.56
2022-12-08T22:28:27.575Z,94.60
2022-12-08T22:30:54.819Z,94.38
2022-12-08T22:33:21.166Z,93.86
2022-12-08T22:35:59.958Z,93.38
2022-12-08T22:38:28.772Z,93.35
2022-12-08T22:40:55.353Z,93.57
2022-12-08T22:43:23.236Z,94.03
2022-12-08T22:45:50.378Z,94.13
2022-12-08T22:48:17.020Z,93.89
2022-12-08T22:50:43.652Z,94.24
2022-12-08T22:53:13.017Z,93.90
2022-12-08T22:55:43.991Z,93.19
2022-12-08T22:58:11.620Z,93.05
2022-12-08T23:00:38.482Z,93.44
2022-12-08T23:03:05.876Z,93.50
2022-12-08T23:05:37.126Z,94.16
2022-12-08T23:08:05.130Z,93.87
2022-12-08T23:10:33.223Z,93.64
2022-12-08T23:13:03.811Z,93.38
2022-12-08T23:15:30.694Z,93.21
2022-12-08T23:17:57.404Z,92.93
2022-12-08T23:20:23.824Z,92.58
2022-12-08T23:22:50.218Z,93.41
2022-12-08T23:25:19.018Z,92.98
2022-12-08T23:27:46.107Z,93.76
2022-12-08T23:30:13.271Z,94.03
2022-12-08T23:32:40.101Z,93.57
2022-12-08T23:35:07.178Z,93.33
2022-12-08T23:37:33.527Z,92.80
2022-12-08T23:40:00.395Z,93.14
2022-12-08T23:42:29.545Z,92.74
2022-12-08T23:44:56.093Z,93.10
2022-12-08T23:47:22.610Z,93.21
2022-12-08T23:49:49.595Z,93.18
2022-12-08T23:52:16.057Z,92.98
2022-12-08T23:54:42.400Z,92.98
2022-12-08T23:57:09.275Z,93.32
2022-12-08T23:59:35.590Z,93.58
